sensor_id;sensor_type;location;lat;lon;timestamp;temperature;humidity
1453;DHT22;720;47.738;7.998;2022-10-17T00:01:30;12.60;99.90
1453;DHT22;720;47.738;7.998;2022-10-17T00:03:56;12.70;99.90
1453;DHT22;720;47.738;7.998;2022-10-17T00:06:21;12.70;99.90
1453;DHT22;720;47.738;7.998;2022-10-17T00:08:47;12.70;99.90
1453;DHT22;720;47.738;7.998;2022-10-17T00:11:16;12.60;99.90
1453;DHT22;720;47.738;7.998;2022-10-17T00:13:42;12.50;99.90
1453;DHT22;720;47.738;7.998;2022-10-17T00:16:08;12.60;99.90
1453;DHT22;720;47.738;7.998;2022-10-17T00:18:33;12.50;99.90
1453;DHT22;720;47.738;7.998;2022-10-17T00:20:59;12.60;99.90
1453;DHT22;720;47.738;7.998;2022-10-17T00:23:25;12.60;99.90
1453;DHT22;720;47.738;7.998;2022-10-17T00:26:04;12.60;99.90
1453;DHT22;720;47.738;7.998;2022-10-17T00:28:30;12.70;99.90
1453;DHT22;720;47.738;7.998;2022-10-17T00:31:01;12.80;99.90
1453;DHT22;720;47.738;7.998;2022-10-17T00:33:28;12.80;99.90
1453;DHT22;720;47.738;7.998;2022-10-17T00:36:11;12.90;99.90
1453;DHT22;720;47.738;7.998;2022-10-17T00:38:38;12.90;99.90
1453;DHT22;720;47.738;7.998;2022-10-17T00:41:05;12.80;99.90
1453;DHT22;720;47.738;7.998;2022-10-17T00:43:52;12.90;99.90
1453;DHT22;720;47.738;7.998;2022-10-17T00:46:19;12.80;99.90
1453;DHT22;720;47.738;7.998;2022-10-17T00:48:47;12.80;99.90
1453;DHT22;720;47.738;7.998;2022-10-17T00:51:14;12.70;99.90
1453;DHT22;720;47.738;7.998;2022-10-17T00:53:41;12.60;99.90
1453;DHT22;720;47.738;7.998;2022-10-17T00:56:07;12.60;99.90
1453;DHT22;720;47.738;7.998;2022-10-17T00:58:32;12.50;99.90
1453;DHT22;720;47.738;7.998;2022-10-17T01:00:58;12.50;99.90
1453;DHT22;720;47.738;7.998;2022-10-17T01:03:24;12.40;99.90
1453;DHT22;720;47.738;7.998;2022-10-17T01:05:50;12.40;99.90
1453;DHT22;720;47.738;7.998;2022-10-17T01:08:15;12.40;99.90
1453;DHT22;720;47.738;7.998;2022-10-17T01:14:00;12.40;99.90
1453;DHT22;720;47.738;7.998;2022-10-17T01:19:58;12.40;99.90
1453;DHT22;720;47.738;7.998;2022-10-17T01:26:04;12.50;99.90
1453;DHT22;720;47.738;7.998;2022-10-17T01:33:31;12.40;99.90
1453;DHT22;720;47.738;7.998;2022-10-17T01:36:11;12.40;99.90
1453;DHT22;720;47.738;7.998;2022-10-17T01:38:46;12.40;99.90
1453;DHT22;720;47.738;7.998;2022-10-17T01:41:31;12.30;99.90
1453;DHT22;720;47.738;7.998;2022-10-17T01:44:20;12.20;99.90
1453;DHT22;720;47.738;7.998;2022-10-17T01:46:53;12.30;99.90
1453;DHT22;720;47.738;7.998;2022-10-17T01:49:23;12.30;99.90
1453;DHT22;720;47.738;7.998;2022-10-17T01:51:57;12.30;99.90
1453;DHT22;720;47.738;7.998;2022-10-17T01:54:31;12.30;99.90
1453;DHT22;720;47.738;7.998;2022-10-17T01:56:59;12.30;99.90
1453;DHT22;720;47.738;7.998;2022-10-17T01:59:30;12.30;99.90
1453;DHT22;720;47.738;7.998;2022-10-17T02:02:00;12.40;99.90
1453;DHT22;720;47.738;7.998;2022-10-17T02:04:26;12.30;99.90
1453;DHT22;720;47.738;7.998;2022-10-17T02:06:53;12.40;99.90
1453;DHT22;720;47.738;7.998;2022-10-17T02:09:24;12.30;99.90
1453;DHT22;720;47.738;7.998;2022-10-17T02:20:23;12.40;99.90
1453;DHT22;720;47.738;7.998;2022-10-17T02:23:04;12.30;99.90
1453;DHT22;720;47.738;7.998;2022-10-17T02:28:19;12.10;99.90
1453;DHT22;720;47.738;7.998;2022-10-17T02:30:59;12.10;99.90
1453;DHT22;720;47.738;7.998;2022-10-17T02:33:43;12.00;99.90
1453;DHT22;720;47.738;7.998;2022-10-17T02:36:23;12.00;99.90
1453;DHT22;720;47.738;7.998;2022-10-17T02:38:52;12.00;99.90
1453;DHT22;720;47.738;7.998;2022-10-17T02:41:21;12.10;99.90
1453;DHT22;720;47.738;7.998;2022-10-17T02:43:49;12.10;99.90
1453;DHT22;720;47.738;7.998;2022-10-17T02:46:18;12.20;99.90
1453;DHT22;720;47.738;7.998;2022-10-17T02:48:53;12.20;99.90
1453;DHT22;720;47.738;7.998;2022-10-17T02:51:41;12.30;99.90
1453;DHT22;720;47.738;7.998;2022-10-17T02:57:09;12.40;99.90
1453;DHT22;720;47.738;7.998;2022-10-17T02:59:37;12.30;99.90
1453;DHT22;720;47.738;7.998;2022-10-17T03:02:04;12.40;99.90
1453;DHT22;720;47.738;7.998;2022-10-17T03:04:30;12.50;99.90
1453;DHT22;720;47.738;7.998;2022-10-17T03:06:56;12.50;99.90
1453;DHT22;720;47.738;7.998;2022-10-17T03:09:22;12.40;99.90
1453;DHT22;720;47.738;7.998;2022-10-17T03:11:47;12.40;99.90
1453;DHT22;720;47.738;7.998;2022-10-17T03:14:13;12.30;99.90
1453;DHT22;720;47.738;7.998;2022-10-17T03:16:38;12.30;99.90
1453;DHT22;720;47.738;7.998;2022-10-17T03:19:04;12.40;99.90
1453;DHT22;720;47.738;7.998;2022-10-17T03:21:30;12.50;99.90
1453;DHT22;720;47.738;7.998;2022-10-17T03:23:55;12.40;99.90
1453;DHT22;720;47.738;7.998;2022-10-17T03:26:21;12.40;99.90
1453;DHT22;720;47.738;7.998;2022-10-17T03:28:47;12.30;99.90
1453;DHT22;720;47.738;7.998;2022-10-17T03:31:14;12.30;99.90
1453;DHT22;720;47.738;7.998;2022-10-17T03:33:41;12.30;99.90
1453;DHT22;720;47.738;7.998;2022-10-17T03:36:13;12.30;99.90
1453;DHT22;720;47.738;7.998;2022-10-17T03:38:39;12.20;99.90
1453;DHT22;720;47.738;7.998;2022-10-17T03:41:05;12.10;99.90
1453;DHT22;720;47.738;7.998;2022-10-17T03:43:31;12.20;99.90
1453;DHT22;720;47.738;7.998;2022-10-17T03:45:57;12.20;99.90
1453;DHT22;720;47.738;7.998;2022-10-17T03:48:24;12.20;99.90
1453;DHT22;720;47.738;7.998;2022-10-17T03:50:49;12.20;99.90
1453;DHT22;720;47.738;7.998;2022-10-17T03:53:15;12.20;99.90
1453;DHT22;720;47.738;7.998;2022-10-17T03:58:07;12.30;99.90
1453;DHT22;720;47.738;7.998;2022-10-17T04:00:35;12.30;99.90
1453;DHT22;720;47.738;7.998;2022-10-17T04:03:01;12.30;99.90
1453;DHT22;720;47.738;7.998;2022-10-17T04:05:26;12.30;99.90
1453;DHT22;720;47.738;7.998;2022-10-17T04:07:52;12.30;99.90
1453;DHT22;720;47.738;7.998;2022-10-17T04:10:17;12.40;99.90
1453;DHT22;720;47.738;7.998;2022-10-17T04:12:43;12.30;99.90
1453;DHT22;720;47.738;7.998;2022-10-17T04:15:09;12.30;99.90
1453;DHT22;720;47.738;7.998;2022-10-17T04:17:35;12.30;99.90
1453;DHT22;720;47.738;7.998;2022-10-17T04:20:00;12.30;99.90
1453;DHT22;720;47.738;7.998;2022-10-17T04:24:52;12.30;99.90
1453;DHT22;720;47.738;7.998;2022-10-17T04:27:18;12.30;99.90
1453;DHT22;720;47.738;7.998;2022-10-17T04:29:43;12.20;99.90
1453;DHT22;720;47.738;7.998;2022-10-17T04:32:09;12.30;99.90
1453;DHT22;720;47.738;7.998;2022-10-17T04:34:34;12.30;99.90
1453;DHT22;720;47.738;7.998;2022-10-17T04:37:00;12.20;99.90
1453;DHT22;720;47.738;7.998;2022-10-17T04:39:26;12.20;99.90
1453;DHT22;720;47.738;7.998;2022-10-17T04:41:52;12.30;99.90
1453;DHT22;720;47.738;7.998;2022-10-17T04:44:18;12.30;99.90
1453;DHT22;720;47.738;7.998;2022-10-17T04:46:45;12.20;99.90
1453;DHT22;720;47.738;7.998;2022-10-17T04:49:10;12.20;99.90
1453;DHT22;720;47.738;7.998;2022-10-17T04:51:37;12.20;99.90
1453;DHT22;720;47.738;7.998;2022-10-17T04:54:03;12.20;99.90
1453;DHT22;720;47.738;7.998;2022-10-17T04:56:29;12.30;99.90
1453;DHT22;720;47.738;7.998;2022-10-17T04:58:55;12.40;99.90
1453;DHT22;720;47.738;7.998;2022-10-17T05:01:22;12.80;99.90
1453;DHT22;720;47.738;7.998;2022-10-17T05:03:48;13.10;99.90
1453;DHT22;720;47.738;7.998;2022-10-17T05:06:16;13.30;99.90
1453;DHT22;720;47.738;7.998;2022-10-17T05:08:43;13.50;99.90
1453;DHT22;720;47.738;7.998;2022-10-17T05:11:20;13.50;99.90
1453;DHT22;720;47.738;7.998;2022-10-17T05:13:54;13.50;99.90
1453;DHT22;720;47.738;7.998;2022-10-17T05:16:20;13.60;99.90
1453;DHT22;720;47.738;7.998;2022-10-17T05:18:50;13.50;99.90
1453;DHT22;720;47.738;7.998;2022-10-17T05:21:17;13.50;99.90
1453;DHT22;720;47.738;7.998;2022-10-17T05:23:43;13.40;99.90
1453;DHT22;720;47.738;7.998;2022-10-17T05:26:09;13.50;99.90
1453;DHT22;720;47.738;7.998;2022-10-17T05:28:35;13.60;99.90
1453;DHT22;720;47.738;7.998;2022-10-17T05:31:02;13.60;99.90
1453;DHT22;720;47.738;7.998;2022-10-17T05:33:28;13.60;99.90
1453;DHT22;720;47.738;7.998;2022-10-17T05:35:54;13.60;99.90
1453;DHT22;720;47.738;7.998;2022-10-17T05:38:19;13.50;99.90
1453;DHT22;720;47.738;7.998;2022-10-17T05:40:45;13.40;99.90
1453;DHT22;720;47.738;7.998;2022-10-17T05:43:10;13.30;99.90
1453;DHT22;720;47.738;7.998;2022-10-17T05:45:36;13.10;99.90
1453;DHT22;720;47.738;7.998;2022-10-17T05:48:02;13.10;99.90
1453;DHT22;720;47.738;7.998;2022-10-17T05:50:28;12.90;99.90
1453;DHT22;720;47.738;7.998;2022-10-17T05:52:54;12.80;99.90
1453;DHT22;720;47.738;7.998;2022-10-17T05:55:20;12.70;99.90
1453;DHT22;720;47.738;7.998;2022-10-17T05:57:47;12.70;99.90
1453;DHT22;720;47.738;7.998;2022-10-17T06:00:12;12.60;99.90
1453;DHT22;720;47.738;7.998;2022-10-17T06:02:38;12.50;99.90
1453;DHT22;720;47.738;7.998;2022-10-17T06:05:04;12.60;99.90
1453;DHT22;720;47.738;7.998;2022-10-17T06:07:30;12.60;99.90
1453;DHT22;720;47.738;7.998;2022-10-17T06:09:55;12.60;99.90
1453;DHT22;720;47.738;7.998;2022-10-17T06:12:23;12.60;99.90
1453;DHT22;720;47.738;7.998;2022-10-17T06:14:49;12.60;99.90
1453;DHT22;720;47.738;7.998;2022-10-17T06:17:14;12.60;99.90
1453;DHT22;720;47.738;7.998;2022-10-17T06:19:40;12.70;99.90
1453;DHT22;720;47.738;7.998;2022-10-17T06:22:06;12.70;99.90
1453;DHT22;720;47.738;7.998;2022-10-17T06:24:32;12.80;99.90
1453;DHT22;720;47.738;7.998;2022-10-17T06:26:59;12.80;99.90
1453;DHT22;720;47.738;7.998;2022-10-17T06:29:24;12.80;99.90
1453;DHT22;720;47.738;7.998;2022-10-17T06:31:50;12.80;99.90
1453;DHT22;720;47.738;7.998;2022-10-17T06:34:16;12.90;99.90
1453;DHT22;720;47.738;7.998;2022-10-17T06:36:42;13.20;99.90
1453;DHT22;720;47.738;7.998;2022-10-17T06:39:07;13.10;99.90
1453;DHT22;720;47.738;7.998;2022-10-17T06:41:33;13.20;99.90
1453;DHT22;720;47.738;7.998;2022-10-17T06:43:59;13.40;99.90
1453;DHT22;720;47.738;7.998;2022-10-17T06:46:24;13.40;99.90
1453;DHT22;720;47.738;7.998;2022-10-17T06:48:51;13.50;99.90
1453;DHT22;720;47.738;7.998;2022-10-17T06:51:17;13.60;99.90
1453;DHT22;720;47.738;7.998;2022-10-17T06:53:43;13.70;99.90
1453;DHT22;720;47.738;7.998;2022-10-17T06:56:09;13.80;99.90
1453;DHT22;720;47.738;7.998;2022-10-17T06:58:37;13.90;99.90
1453;DHT22;720;47.738;7.998;2022-10-17T07:01:09;14.00;99.90
1453;DHT22;720;47.738;7.998;2022-10-17T07:03:35;14.10;99.90
1453;DHT22;720;47.738;7.998;2022-10-17T07:06:01;14.20;99.90
1453;DHT22;720;47.738;7.998;2022-10-17T07:08:27;14.50;99.90
1453;DHT22;720;47.738;7.998;2022-10-17T07:10:54;15.00;99.90
1453;DHT22;720;47.738;7.998;2022-10-17T07:13:20;15.80;99.90
1453;DHT22;720;47.738;7.998;2022-10-17T07:15:46;16.70;99.90
1453;DHT22;720;47.738;7.998;2022-10-17T07:18:12;17.40;99.90
1453;DHT22;720;47.738;7.998;2022-10-17T07:20:38;18.10;99.90
1453;DHT22;720;47.738;7.998;2022-10-17T07:23:04;18.40;99.90
1453;DHT22;720;47.738;7.998;2022-10-17T07:25:30;18.70;99.90
1453;DHT22;720;47.738;7.998;2022-10-17T07:27:56;19.30;99.90
1453;DHT22;720;47.738;7.998;2022-10-17T07:30:22;19.90;99.90
1453;DHT22;720;47.738;7.998;2022-10-17T07:32:51;20.60;99.90
1453;DHT22;720;47.738;7.998;2022-10-17T07:35:17;21.10;99.90
1453;DHT22;720;47.738;7.998;2022-10-17T07:37:42;21.60;99.90
1453;DHT22;720;47.738;7.998;2022-10-17T07:40:09;22.10;99.90
1453;DHT22;720;47.738;7.998;2022-10-17T07:42:38;22.60;99.90
1453;DHT22;720;47.738;7.998;2022-10-17T07:45:04;23.20;99.90
1453;DHT22;720;47.738;7.998;2022-10-17T07:47:30;24.00;99.90
1453;DHT22;720;47.738;7.998;2022-10-17T07:49:57;24.70;99.90
1453;DHT22;720;47.738;7.998;2022-10-17T07:52:23;25.50;95.60
1453;DHT22;720;47.738;7.998;2022-10-17T07:54:48;26.10;94.60
1453;DHT22;720;47.738;7.998;2022-10-17T07:57:14;26.80;91.40
1453;DHT22;720;47.738;7.998;2022-10-17T07:59:40;27.40;87.10
1453;DHT22;720;47.738;7.998;2022-10-17T08:02:07;28.20;81.70
1453;DHT22;720;47.738;7.998;2022-10-17T08:04:33;29.00;77.10
1453;DHT22;720;47.738;7.998;2022-10-17T08:07:01;29.70;71.90
1453;DHT22;720;47.738;7.998;2022-10-17T08:09:26;30.30;68.70
1453;DHT22;720;47.738;7.998;2022-10-17T08:11:52;30.90;67.40
1453;DHT22;720;47.738;7.998;2022-10-17T08:14:18;31.30;64.20
1453;DHT22;720;47.738;7.998;2022-10-17T08:16:45;31.50;75.60
1453;DHT22;720;47.738;7.998;2022-10-17T08:19:10;31.60;61.30
1453;DHT22;720;47.738;7.998;2022-10-17T08:21:37;31.60;59.50
1453;DHT22;720;47.738;7.998;2022-10-17T08:24:03;31.50;59.60
1453;DHT22;720;47.738;7.998;2022-10-17T08:26:29;31.30;58.50
1453;DHT22;720;47.738;7.998;2022-10-17T08:28:55;31.20;58.10
1453;DHT22;720;47.738;7.998;2022-10-17T08:31:21;31.30;57.90
1453;DHT22;720;47.738;7.998;2022-10-17T08:33:48;31.50;57.40
1453;DHT22;720;47.738;7.998;2022-10-17T08:36:18;31.70;57.60
1453;DHT22;720;47.738;7.998;2022-10-17T08:38:44;32.10;58.30
1453;DHT22;720;47.738;7.998;2022-10-17T08:46:45;33.30;55.10
1453;DHT22;720;47.738;7.998;2022-10-17T08:49:25;34.00;53.30
1453;DHT22;720;47.738;7.998;2022-10-17T08:52:00;34.60;52.20
1453;DHT22;720;47.738;7.998;2022-10-17T08:54:44;34.80;50.60
1453;DHT22;720;47.738;7.998;2022-10-17T08:57:13;35.30;48.80
1453;DHT22;720;47.738;7.998;2022-10-17T08:59:40;35.50;48.70
1453;DHT22;720;47.738;7.998;2022-10-17T09:07:41;35.70;46.70
1453;DHT22;720;47.738;7.998;2022-10-17T09:10:13;35.50;47.60
1453;DHT22;720;47.738;7.998;2022-10-17T09:15:49;35.80;46.30
1453;DHT22;720;47.738;7.998;2022-10-17T09:20:58;36.30;44.60
1453;DHT22;720;47.738;7.998;2022-10-17T09:23:29;36.40;43.70
1453;DHT22;720;47.738;7.998;2022-10-17T09:25:59;36.30;44.30
1453;DHT22;720;47.738;7.998;2022-10-17T09:28:37;35.90;43.80
1453;DHT22;720;47.738;7.998;2022-10-17T09:33:41;35.00;46.40
1453;DHT22;720;47.738;7.998;2022-10-17T09:36:18;34.90;44.60
1453;DHT22;720;47.738;7.998;2022-10-17T09:38:51;34.90;45.10
1453;DHT22;720;47.738;7.998;2022-10-17T09:41:29;34.80;44.50
1453;DHT22;720;47.738;7.998;2022-10-17T09:43:57;35.00;44.40
1453;DHT22;720;47.738;7.998;2022-10-17T09:46:30;35.30;44.70
1453;DHT22;720;47.738;7.998;2022-10-17T09:49:09;35.50;45.30
1453;DHT22;720;47.738;7.998;2022-10-17T09:51:37;35.90;44.20
1453;DHT22;720;47.738;7.998;2022-10-17T09:54:16;36.20;44.30
1453;DHT22;720;47.738;7.998;2022-10-17T09:57:05;36.80;49.80
1453;DHT22;720;47.738;7.998;2022-10-17T10:00:19;36.60;42.90
1453;DHT22;720;47.738;7.998;2022-10-17T10:02:23;36.70;43.70
1453;DHT22;720;47.738;7.998;2022-10-17T10:05:05;36.80;43.00
1453;DHT22;720;47.738;7.998;2022-10-17T10:07:36;36.60;42.30
1453;DHT22;720;47.738;7.998;2022-10-17T10:10:04;35.30;43.10
1453;DHT22;720;47.738;7.998;2022-10-17T10:12:37;34.70;42.20
1453;DHT22;720;47.738;7.998;2022-10-17T10:15:38;33.60;45.40
1453;DHT22;720;47.738;7.998;2022-10-17T10:23:35;32.10;43.20
1453;DHT22;720;47.738;7.998;2022-10-17T10:26:25;31.80;42.00
1453;DHT22;720;47.738;7.998;2022-10-17T10:28:58;31.40;41.00
1453;DHT22;720;47.738;7.998;2022-10-17T10:31:37;31.00;40.60
1453;DHT22;720;47.738;7.998;2022-10-17T10:37:02;30.70;47.90
1453;DHT22;720;47.738;7.998;2022-10-17T10:41:58;30.40;45.40
1453;DHT22;720;47.738;7.998;2022-10-17T10:44:27;30.20;47.00
1453;DHT22;720;47.738;7.998;2022-10-17T10:47:22;29.40;53.90
1453;DHT22;720;47.738;7.998;2022-10-17T10:52:44;29.00;44.40
1453;DHT22;720;47.738;7.998;2022-10-17T10:57:44;28.20;43.30
1453;DHT22;720;47.738;7.998;2022-10-17T11:00:14;27.90;50.60
1453;DHT22;720;47.738;7.998;2022-10-17T11:02:56;27.50;52.60
1453;DHT22;720;47.738;7.998;2022-10-17T11:05:36;27.10;49.60
1453;DHT22;720;47.738;7.998;2022-10-17T11:11:04;26.80;47.90
1453;DHT22;720;47.738;7.998;2022-10-17T11:13:36;26.60;46.80
1453;DHT22;720;47.738;7.998;2022-10-17T11:16:17;26.20;47.30
1453;DHT22;720;47.738;7.998;2022-10-17T11:18:49;26.00;47.60
1453;DHT22;720;47.738;7.998;2022-10-17T11:21:36;25.80;51.90
1453;DHT22;720;47.738;7.998;2022-10-17T11:24:24;25.70;49.50
1453;DHT22;720;47.738;7.998;2022-10-17T11:27:05;25.50;58.50
1453;DHT22;720;47.738;7.998;2022-10-17T11:29:38;25.60;49.90
1453;DHT22;720;47.738;7.998;2022-10-17T11:32:14;25.50;49.80
1453;DHT22;720;47.738;7.998;2022-10-17T11:34:46;25.50;50.30
1453;DHT22;720;47.738;7.998;2022-10-17T11:37:19;25.40;50.30
1453;DHT22;720;47.738;7.998;2022-10-17T11:39:57;25.30;49.30
1453;DHT22;720;47.738;7.998;2022-10-17T11:42:29;25.20;48.80
1453;DHT22;720;47.738;7.998;2022-10-17T11:45:08;25.10;52.70
1453;DHT22;720;47.738;7.998;2022-10-17T11:47:51;25.10;55.30
1453;DHT22;720;47.738;7.998;2022-10-17T11:53:02;25.00;54.80
1453;DHT22;720;47.738;7.998;2022-10-17T11:55:30;24.90;51.10
1453;DHT22;720;47.738;7.998;2022-10-17T11:58:25;24.80;53.60
1453;DHT22;720;47.738;7.998;2022-10-17T12:12:10;24.10;57.30
1453;DHT22;720;47.738;7.998;2022-10-17T12:14:47;24.10;53.90
1453;DHT22;720;47.738;7.998;2022-10-17T12:17:33;24.00;57.50
1453;DHT22;720;47.738;7.998;2022-10-17T12:23:26;23.70;56.80
1453;DHT22;720;47.738;7.998;2022-10-17T12:25:54;23.40;58.20
1453;DHT22;720;47.738;7.998;2022-10-17T12:28:45;23.30;61.50
1453;DHT22;720;47.738;7.998;2022-10-17T12:33:50;23.20;61.60
1453;DHT22;720;47.738;7.998;2022-10-17T12:38:49;23.20;56.30
1453;DHT22;720;47.738;7.998;2022-10-17T12:41:15;23.20;55.00
1453;DHT22;720;47.738;7.998;2022-10-17T12:43:52;23.10;56.00
1453;DHT22;720;47.738;7.998;2022-10-17T12:46:54;23.10;58.90
1453;DHT22;720;47.738;7.998;2022-10-17T12:49:46;22.90;54.90
1453;DHT22;720;47.738;7.998;2022-10-17T12:55:00;22.70;60.20
1453;DHT22;720;47.738;7.998;2022-10-17T12:57:53;22.50;60.70
1453;DHT22;720;47.738;7.998;2022-10-17T13:00:53;22.50;59.50
1453;DHT22;720;47.738;7.998;2022-10-17T13:05:53;22.20;59.10
1453;DHT22;720;47.738;7.998;2022-10-17T13:08:28;22.10;62.90
1453;DHT22;720;47.738;7.998;2022-10-17T13:10:56;22.00;65.10
1453;DHT22;720;47.738;7.998;2022-10-17T13:15:59;21.80;67.20
1453;DHT22;720;47.738;7.998;2022-10-17T13:18:27;21.60;68.10
1453;DHT22;720;47.738;7.998;2022-10-17T13:21:05;21.50;66.10
1453;DHT22;720;47.738;7.998;2022-10-17T13:23:36;21.40;67.20
1453;DHT22;720;47.738;7.998;2022-10-17T13:28:40;21.40;63.40
1453;DHT22;720;47.738;7.998;2022-10-17T13:31:06;21.30;66.90
1453;DHT22;720;47.738;7.998;2022-10-17T13:33:37;21.30;67.00
1453;DHT22;720;47.738;7.998;2022-10-17T13:36:06;21.30;68.20
1453;DHT22;720;47.738;7.998;2022-10-17T13:38:33;21.20;69.50
1453;DHT22;720;47.738;7.998;2022-10-17T13:41:00;21.10;71.80
1453;DHT22;720;47.738;7.998;2022-10-17T13:43:27;21.10;72.20
1453;DHT22;720;47.738;7.998;2022-10-17T13:45:58;20.90;71.90
1453;DHT22;720;47.738;7.998;2022-10-17T13:48:27;20.80;73.90
1453;DHT22;720;47.738;7.998;2022-10-17T13:50:57;20.70;74.60
1453;DHT22;720;47.738;7.998;2022-10-17T13:53:35;20.60;76.80
1453;DHT22;720;47.738;7.998;2022-10-17T13:58:52;20.50;77.10
1453;DHT22;720;47.738;7.998;2022-10-17T14:01:19;20.40;79.40
1453;DHT22;720;47.738;7.998;2022-10-17T14:03:47;20.30;79.40
1453;DHT22;720;47.738;7.998;2022-10-17T14:06:29;20.30;82.70
1453;DHT22;720;47.738;7.998;2022-10-17T14:09:06;20.30;84.00
1453;DHT22;720;47.738;7.998;2022-10-17T14:11:37;20.20;84.70
1453;DHT22;720;47.738;7.998;2022-10-17T14:14:06;20.20;85.10
1453;DHT22;720;47.738;7.998;2022-10-17T14:16:38;20.20;85.40
1453;DHT22;720;47.738;7.998;2022-10-17T14:19:06;20.20;85.70
1453;DHT22;720;47.738;7.998;2022-10-17T14:21:37;20.20;86.60
1453;DHT22;720;47.738;7.998;2022-10-17T14:24:25;20.10;87.90
1453;DHT22;720;47.738;7.998;2022-10-17T14:26:54;19.80;98.00
1453;DHT22;720;47.738;7.998;2022-10-17T14:29:27;20.00;90.70
1453;DHT22;720;47.738;7.998;2022-10-17T14:32:12;20.00;90.60
1453;DHT22;720;47.738;7.998;2022-10-17T14:34:39;19.90;91.00
1453;DHT22;720;47.738;7.998;2022-10-17T14:37:10;19.90;91.50
1453;DHT22;720;47.738;7.998;2022-10-17T14:39:37;19.60;99.10
1453;DHT22;720;47.738;7.998;2022-10-17T14:42:03;19.70;92.00
1453;DHT22;720;47.738;7.998;2022-10-17T14:44:32;19.80;92.90
1453;DHT22;720;47.738;7.998;2022-10-17T14:47:00;19.70;92.80
1453;DHT22;720;47.738;7.998;2022-10-17T14:49:37;19.70;92.70
1453;DHT22;720;47.738;7.998;2022-10-17T14:54:35;19.60;93.40
1453;DHT22;720;47.738;7.998;2022-10-17T14:57:14;19.60;93.50
1453;DHT22;720;47.738;7.998;2022-10-17T14:59:40;19.50;93.30
1453;DHT22;720;47.738;7.998;2022-10-17T15:02:05;19.60;93.30
1453;DHT22;720;47.738;7.998;2022-10-17T15:04:31;19.60;93.70
1453;DHT22;720;47.738;7.998;2022-10-17T15:06:57;19.50;93.90
1453;DHT22;720;47.738;7.998;2022-10-17T15:09:23;19.50;94.30
1453;DHT22;720;47.738;7.998;2022-10-17T15:11:54;19.50;94.40
1453;DHT22;720;47.738;7.998;2022-10-17T15:14:19;19.50;94.80
1453;DHT22;720;47.738;7.998;2022-10-17T15:16:45;19.30;99.90
1453;DHT22;720;47.738;7.998;2022-10-17T15:19:12;19.30;95.30
1453;DHT22;720;47.738;7.998;2022-10-17T15:21:38;19.30;95.60
1453;DHT22;720;47.738;7.998;2022-10-17T15:24:04;19.30;96.20
1453;DHT22;720;47.738;7.998;2022-10-17T15:26:32;19.20;96.30
1453;DHT22;720;47.738;7.998;2022-10-17T15:28:59;19.10;96.40
1453;DHT22;720;47.738;7.998;2022-10-17T15:31:26;19.10;96.70
1453;DHT22;720;47.738;7.998;2022-10-17T15:33:53;19.10;97.00
1453;DHT22;720;47.738;7.998;2022-10-17T15:36:25;19.00;97.20
1453;DHT22;720;47.738;7.998;2022-10-17T15:38:54;19.00;97.40
1453;DHT22;720;47.738;7.998;2022-10-17T15:41:21;19.00;99.90
1453;DHT22;720;47.738;7.998;2022-10-17T15:43:47;18.70;98.40
1453;DHT22;720;47.738;7.998;2022-10-17T15:46:20;18.60;98.50
1453;DHT22;720;47.738;7.998;2022-10-17T15:48:47;18.60;98.90
1453;DHT22;720;47.738;7.998;2022-10-17T15:51:13;18.60;99.20
1453;DHT22;720;47.738;7.998;2022-10-17T15:53:38;18.50;99.20
1453;DHT22;720;47.738;7.998;2022-10-17T15:56:05;18.50;99.30
1453;DHT22;720;47.738;7.998;2022-10-17T15:58:39;18.50;99.40
1453;DHT22;720;47.738;7.998;2022-10-17T16:01:05;18.40;99.60
1453;DHT22;720;47.738;7.998;2022-10-17T16:03:32;18.30;99.70
1453;DHT22;720;47.738;7.998;2022-10-17T16:05:58;18.30;99.90
1453;DHT22;720;47.738;7.998;2022-10-17T16:08:24;18.20;99.90
1453;DHT22;720;47.738;7.998;2022-10-17T16:10:50;18.10;99.90
1453;DHT22;720;47.738;7.998;2022-10-17T16:13:18;18.00;99.90
1453;DHT22;720;47.738;7.998;2022-10-17T16:15:45;17.90;99.90
1453;DHT22;720;47.738;7.998;2022-10-17T16:18:11;17.90;99.90
1453;DHT22;720;47.738;7.998;2022-10-17T16:20:37;17.90;99.90
1453;DHT22;720;47.738;7.998;2022-10-17T16:23:03;17.90;99.90
1453;DHT22;720;47.738;7.998;2022-10-17T16:25:30;17.80;99.90
1453;DHT22;720;47.738;7.998;2022-10-17T16:27:59;17.80;99.90
1453;DHT22;720;47.738;7.998;2022-10-17T16:30:26;17.60;99.90
1453;DHT22;720;47.738;7.998;2022-10-17T16:32:53;17.50;99.90
1453;DHT22;720;47.738;7.998;2022-10-17T16:35:25;17.50;99.90
1453;DHT22;720;47.738;7.998;2022-10-17T16:37:51;17.40;99.90
1453;DHT22;720;47.738;7.998;2022-10-17T16:40:17;17.30;99.90
1453;DHT22;720;47.738;7.998;2022-10-17T16:42:42;17.10;99.90
1453;DHT22;720;47.738;7.998;2022-10-17T16:45:17;16.90;99.90
1453;DHT22;720;47.738;7.998;2022-10-17T16:47:44;17.00;99.90
1453;DHT22;720;47.738;7.998;2022-10-17T16:50:10;16.90;99.90
1453;DHT22;720;47.738;7.998;2022-10-17T16:55:01;16.60;99.90
1453;DHT22;720;47.738;7.998;2022-10-17T16:57:27;16.50;99.90
1453;DHT22;720;47.738;7.998;2022-10-17T16:59:53;16.50;99.90
1453;DHT22;720;47.738;7.998;2022-10-17T17:02:18;16.60;99.90
1453;DHT22;720;47.738;7.998;2022-10-17T17:04:44;16.50;99.90
1453;DHT22;720;47.738;7.998;2022-10-17T17:07:10;16.40;99.90
1453;DHT22;720;47.738;7.998;2022-10-17T17:09:35;16.30;99.90
1453;DHT22;720;47.738;7.998;2022-10-17T17:12:01;16.20;99.90
1453;DHT22;720;47.738;7.998;2022-10-17T17:14:27;16.10;99.90
1453;DHT22;720;47.738;7.998;2022-10-17T17:16:53;15.80;99.90
1453;DHT22;720;47.738;7.998;2022-10-17T17:19:18;15.90;99.90
1453;DHT22;720;47.738;7.998;2022-10-17T17:21:45;15.90;99.90
1453;DHT22;720;47.738;7.998;2022-10-17T17:24:18;15.90;99.90
1453;DHT22;720;47.738;7.998;2022-10-17T17:26:53;16.00;99.90
1453;DHT22;720;47.738;7.998;2022-10-17T17:29:19;15.80;99.90
1453;DHT22;720;47.738;7.998;2022-10-17T17:31:45;15.80;99.90
1453;DHT22;720;47.738;7.998;2022-10-17T17:34:11;15.70;99.90
1453;DHT22;720;47.738;7.998;2022-10-17T17:36:37;17.40;99.90
1453;DHT22;720;47.738;7.998;2022-10-17T17:39:05;15.60;99.90
1453;DHT22;720;47.738;7.998;2022-10-17T17:41:32;15.60;99.90
1453;DHT22;720;47.738;7.998;2022-10-17T17:43:58;15.60;99.90
1453;DHT22;720;47.738;7.998;2022-10-17T17:46:24;15.60;99.90
1453;DHT22;720;47.738;7.998;2022-10-17T17:48:52;15.60;99.90
1453;DHT22;720;47.738;7.998;2022-10-17T17:51:20;15.60;99.90
1453;DHT22;720;47.738;7.998;2022-10-17T17:53:46;15.50;99.90
1453;DHT22;720;47.738;7.998;2022-10-17T17:56:15;15.50;99.90
1453;DHT22;720;47.738;7.998;2022-10-17T17:58:43;15.50;99.90
1453;DHT22;720;47.738;7.998;2022-10-17T18:01:14;15.50;99.90
1453;DHT22;720;47.738;7.998;2022-10-17T18:03:43;15.40;99.90
1453;DHT22;720;47.738;7.998;2022-10-17T18:06:09;15.40;99.90
1453;DHT22;720;47.738;7.998;2022-10-17T18:08:35;15.30;99.90
1453;DHT22;720;47.738;7.998;2022-10-17T18:11:01;15.20;99.90
1453;DHT22;720;47.738;7.998;2022-10-17T18:13:27;15.20;99.90
1453;DHT22;720;47.738;7.998;2022-10-17T18:15:58;15.30;99.90
1453;DHT22;720;47.738;7.998;2022-10-17T18:18:25;15.20;99.90
1453;DHT22;720;47.738;7.998;2022-10-17T18:20:51;15.10;99.90
1453;DHT22;720;47.738;7.998;2022-10-17T18:23:19;15.50;99.90
1453;DHT22;720;47.738;7.998;2022-10-17T18:25:59;15.00;99.90